sensor_id;sensor_type;location;lat;lon;timestamp;pressure;altitude;pressure_sealevel;temperature;humidity
68141;BME280;54941;52.220;104.306;2023-04-26T00:00:31;95689.09;;;3.30;69.54
68141;BME280;54941;52.220;104.306;2023-04-26T00:02:58;95701.00;;;3.59;67.43
68141;BME280;54941;52.220;104.306;2023-04-26T00:05:25;95699.88;;;3.62;66.32
68141;BME280;54941;52.220;104.306;2023-04-26T00:07:52;95706.41;;;3.06;68.05
68141;BME280;54941;52.220;104.306;2023-04-26T00:10:18;95712.03;;;3.81;66.70
68141;BME280;54941;52.220;104.306;2023-04-26T00:12:46;95715.19;;;3.98;65.66
68141;BME280;54941;52.220;104.306;2023-04-26T00:15:12;95710.34;;;3.37;67.09
68141;BME280;54941;52.220;104.306;2023-04-26T00:17:38;95720.16;;;3.70;66.28
68141;BME280;54941;52.220;104.306;2023-04-26T00:20:06;95732.47;;;3.66;65.73
68141;BME280;54941;52.220;104.306;2023-04-26T00:22:34;95725.66;;;2.85;67.97
68141;BME280;54941;52.220;104.306;2023-04-26T00:25:00;95724.31;;;2.37;72.67
68141;BME280;54941;52.220;104.306;2023-04-26T00:27:27;95734.16;;;2.78;73.80
68141;BME280;54941;52.220;104.306;2023-04-26T00:29:53;95729.94;;;2.02;77.49
68141;BME280;54941;52.220;104.306;2023-04-26T00:32:20;95722.03;;;2.65;71.71
68141;BME280;54941;52.220;104.306;2023-04-26T00:34:46;95728.44;;;2.38;72.08
68141;BME280;54941;52.220;104.306;2023-04-26T00:37:12;95734.13;;;3.01;70.23
68141;BME280;54941;52.220;104.306;2023-04-26T00:39:42;95738.44;;;3.59;68.58
68141;BME280;54941;52.220;104.306;2023-04-26T00:42:08;95738.47;;;2.92;69.08
68141;BME280;54941;52.220;104.306;2023-04-26T00:44:34;95733.38;;;2.92;70.32
68141;BME280;54941;52.220;104.306;2023-04-26T00:47:01;95740.81;;;3.16;69.63
68141;BME280;54941;52.220;104.306;2023-04-26T00:49:27;95753.63;;;3.23;69.96
68141;BME280;54941;52.220;104.306;2023-04-26T00:51:54;95742.72;;;3.14;69.19
68141;BME280;54941;52.220;104.306;2023-04-26T00:54:20;95741.97;;;3.43;68.80
68141;BME280;54941;52.220;104.306;2023-04-26T00:56:48;95750.31;;;3.52;68.41
68141;BME280;54941;52.220;104.306;2023-04-26T00:59:14;95764.28;;;3.56;68.48
68141;BME280;54941;52.220;104.306;2023-04-26T01:01:41;95749.00;;;2.89;69.26
68141;BME280;54941;52.220;104.306;2023-04-26T01:04:07;95757.47;;;2.67;69.82
68141;BME280;54941;52.220;104.306;2023-04-26T01:06:34;95746.66;;;2.19;71.34
68141;BME280;54941;52.220;104.306;2023-04-26T01:09:02;95760.09;;;3.11;70.04
68141;BME280;54941;52.220;104.306;2023-04-26T01:11:29;95766.72;;;3.20;71.07
68141;BME280;54941;52.220;104.306;2023-04-26T01:13:57;95758.81;;;2.77;69.27
68141;BME280;54941;52.220;104.306;2023-04-26T01:16:24;95759.75;;;2.62;69.65
68141;BME280;54941;52.220;104.306;2023-04-26T01:18:51;95771.88;;;3.12;69.50
68141;BME280;54941;52.220;104.306;2023-04-26T01:21:19;95777.53;;;3.51;68.69
68141;BME280;54941;52.220;104.306;2023-04-26T01:23:47;95767.00;;;3.54;66.05
68141;BME280;54941;52.220;104.306;2023-04-26T01:26:13;95755.25;;;2.86;68.07
68141;BME280;54941;52.220;104.306;2023-04-26T01:28:39;95773.38;;;2.46;70.31
68141;BME280;54941;52.220;104.306;2023-04-26T01:31:06;95772.19;;;2.03;72.44
68141;BME280;54941;52.220;104.306;2023-04-26T01:33:32;95764.78;;;2.47;70.80
68141;BME280;54941;52.220;104.306;2023-04-26T01:35:59;95767.00;;;3.39;68.21
68141;BME280;54941;52.220;104.306;2023-04-26T01:38:25;95775.34;;;3.48;66.28
68141;BME280;54941;52.220;104.306;2023-04-26T01:40:53;95777.09;;;3.91;65.99
68141;BME280;54941;52.220;104.306;2023-04-26T01:43:19;95768.41;;;4.22;65.13
68141;BME280;54941;52.220;104.306;2023-04-26T01:45:46;95772.69;;;3.56;64.99
68141;BME280;54941;52.220;104.306;2023-04-26T01:48:12;95773.13;;;3.74;65.91
68141;BME280;54941;52.220;104.306;2023-04-26T01:50:38;95768.84;;;3.46;66.00
68141;BME280;54941;52.220;104.306;2023-04-26T01:53:05;95764.06;;;4.01;64.92
68141;BME280;54941;52.220;104.306;2023-04-26T01:55:32;95773.72;;;4.06;64.23
68141;BME280;54941;52.220;104.306;2023-04-26T01:58:00;95758.03;;;3.73;65.27
68141;BME280;54941;52.220;104.306;2023-04-26T02:00:27;95780.38;;;3.04;67.88
68141;BME280;54941;52.220;104.306;2023-04-26T02:02:54;95777.53;;;4.31;65.32
68141;BME280;54941;52.220;104.306;2023-04-26T02:05:21;95788.94;;;5.20;60.79
68141;BME280;54941;52.220;104.306;2023-04-26T02:07:47;95788.97;;;5.26;61.37
68141;BME280;54941;52.220;104.306;2023-04-26T02:10:13;95785.16;;;3.51;66.59
68141;BME280;54941;52.220;104.306;2023-04-26T02:12:40;95776.72;;;4.30;63.26
68141;BME280;54941;52.220;104.306;2023-04-26T02:15:09;95785.13;;;5.09;61.58
68141;BME280;54941;52.220;104.306;2023-04-26T02:17:35;95796.81;;;4.76;61.99
68141;BME280;54941;52.220;104.306;2023-04-26T02:20:02;95790.34;;;4.37;62.46
68141;BME280;54941;52.220;104.306;2023-04-26T02:22:31;95784.78;;;5.19;59.95
68141;BME280;54941;52.220;104.306;2023-04-26T02:24:57;95792.13;;;5.01;60.11
68141;BME280;54941;52.220;104.306;2023-04-26T02:27:23;95798.91;;;3.65;63.48
68141;BME280;54941;52.220;104.306;2023-04-26T02:29:50;95793.16;;;4.43;63.23
68141;BME280;54941;52.220;104.306;2023-04-26T02:32:17;95792.56;;;4.83;60.96
68141;BME280;54941;52.220;104.306;2023-04-26T02:34:44;95787.09;;;4.29;62.16
68141;BME280;54941;52.220;104.306;2023-04-26T02:37:10;95792.25;;;4.00;64.77
68141;BME280;54941;52.220;104.306;2023-04-26T02:39:36;95787.25;;;4.84;61.71
68141;BME280;54941;52.220;104.306;2023-04-26T02:42:03;95788.53;;;4.53;62.10
68141;BME280;54941;52.220;104.306;2023-04-26T02:44:29;95789.38;;;3.44;63.24
68141;BME280;54941;52.220;104.306;2023-04-26T02:46:56;95786.34;;;2.74;69.46
68141;BME280;54941;52.220;104.306;2023-04-26T02:49:24;95785.19;;;4.73;62.38
68141;BME280;54941;52.220;104.306;2023-04-26T02:51:50;95788.19;;;4.56;62.36
68141;BME280;54941;52.220;104.306;2023-04-26T02:54:17;95785.53;;;3.48;63.69
68141;BME280;54941;52.220;104.306;2023-04-26T02:56:43;95789.84;;;4.27;62.05
68141;BME280;54941;52.220;104.306;2023-04-26T02:59:09;95802.56;;;4.06;62.97
68141;BME280;54941;52.220;104.306;2023-04-26T03:01:35;95793.25;;;3.99;62.88
68141;BME280;54941;52.220;104.306;2023-04-26T03:04:02;95807.22;;;3.73;62.28
68141;BME280;54941;52.220;104.306;2023-04-26T03:06:29;95786.38;;;3.26;65.27
68141;BME280;54941;52.220;104.306;2023-04-26T03:08:56;95795.19;;;4.32;62.23
68141;BME280;54941;52.220;104.306;2023-04-26T03:11:22;95801.59;;;5.07;58.50
68141;BME280;54941;52.220;104.306;2023-04-26T03:13:48;95798.56;;;4.75;59.26
68141;BME280;54941;52.220;104.306;2023-04-26T03:16:14;95803.34;;;5.27;57.40
68141;BME280;54941;52.220;104.306;2023-04-26T03:18:41;95792.38;;;4.84;61.13
68141;BME280;54941;52.220;104.306;2023-04-26T03:21:07;95785.19;;;3.95;61.52
68141;BME280;54941;52.220;104.306;2023-04-26T03:23:35;95794.84;;;3.85;62.36
68141;BME280;54941;52.220;104.306;2023-04-26T03:26:01;95793.16;;;3.92;63.09
68141;BME280;54941;52.220;104.306;2023-04-26T03:28:27;95802.53;;;4.21;61.17
68141;BME280;54941;52.220;104.306;2023-04-26T03:30:54;95802.22;;;4.66;59.06
68141;BME280;54941;52.220;104.306;2023-04-26T03:33:20;95805.94;;;5.06;57.36
68141;BME280;54941;52.220;104.306;2023-04-26T03:35:46;95789.88;;;5.81;55.22
68141;BME280;54941;52.220;104.306;2023-04-26T03:38:13;95801.81;;;5.67;53.90
68141;BME280;54941;52.220;104.306;2023-04-26T03:40:41;95801.47;;;5.77;54.09
68141;BME280;54941;52.220;104.306;2023-04-26T03:43:07;95787.66;;;4.24;56.79
68141;BME280;54941;52.220;104.306;2023-04-26T03:45:33;95795.88;;;5.05;56.51
68141;BME280;54941;52.220;104.306;2023-04-26T03:48:01;95792.47;;;5.47;54.70
68141;BME280;54941;52.220;104.306;2023-04-26T03:50:28;95795.63;;;5.21;55.43
68141;BME280;54941;52.220;104.306;2023-04-26T03:52:54;95789.44;;;5.36;54.58
68141;BME280;54941;52.220;104.306;2023-04-26T03:55:20;95789.25;;;4.89;56.69
68141;BME280;54941;52.220;104.306;2023-04-26T03:57:48;95794.03;;;3.84;60.16
68141;BME280;54941;52.220;104.306;2023-04-26T04:00:15;95800.56;;;3.43;63.56
68141;BME280;54941;52.220;104.306;2023-04-26T04:02:43;95812.00;;;4.63;58.55
68141;BME280;54941;52.220;104.306;2023-04-26T04:05:09;95793.47;;;4.97;58.58
68141;BME280;54941;52.220;104.306;2023-04-26T04:07:36;95808.69;;;5.11;57.44
68141;BME280;54941;52.220;104.306;2023-04-26T04:10:02;95795.69;;;3.92;60.72
68141;BME280;54941;52.220;104.306;2023-04-26T04:12:30;95810.38;;;4.98;60.34
68141;BME280;54941;52.220;104.306;2023-04-26T04:14:58;95808.06;;;4.24;60.99
68141;BME280;54941;52.220;104.306;2023-04-26T04:17:24;95806.53;;;3.94;64.14
68141;BME280;54941;52.220;104.306;2023-04-26T04:19:50;95796.50;;;3.92;63.14
68141;BME280;54941;52.220;104.306;2023-04-26T04:22:17;95806.53;;;4.30;62.20
68141;BME280;54941;52.220;104.306;2023-04-26T04:24:43;95798.50;;;4.12;62.27
68141;BME280;54941;52.220;104.306;2023-04-26T04:27:09;95802.94;;;4.39;62.92
68141;BME280;54941;52.220;104.306;2023-04-26T04:29:36;95797.50;;;3.77;63.97
68141;BME280;54941;52.220;104.306;2023-04-26T04:32:04;95799.19;;;4.20;63.96
68141;BME280;54941;52.220;104.306;2023-04-26T04:34:33;95799.94;;;3.85;64.78
68141;BME280;54941;52.220;104.306;2023-04-26T04:36:59;95801.00;;;3.90;64.96
68141;BME280;54941;52.220;104.306;2023-04-26T04:39:26;95788.94;;;3.84;65.71
68141;BME280;54941;52.220;104.306;2023-04-26T04:41:52;95795.22;;;4.18;64.32
68141;BME280;54941;52.220;104.306;2023-04-26T04:44:18;95789.16;;;4.19;64.45
68141;BME280;54941;52.220;104.306;2023-04-26T04:46:45;95799.22;;;4.06;62.79
68141;BME280;54941;52.220;104.306;2023-04-26T04:49:13;95785.09;;;4.60;62.94
68141;BME280;54941;52.220;104.306;2023-04-26T04:51:39;95787.53;;;4.47;62.31
68141;BME280;54941;52.220;104.306;2023-04-26T04:54:10;95785.53;;;5.40;60.04
68141;BME280;54941;52.220;104.306;2023-04-26T04:56:36;95780.72;;;4.75;62.16
68141;BME280;54941;52.220;104.306;2023-04-26T04:59:02;95780.22;;;5.35;61.09
68141;BME280;54941;52.220;104.306;2023-04-26T05:01:29;95784.28;;;4.38;62.69
68141;BME280;54941;52.220;104.306;2023-04-26T05:03:55;95787.56;;;4.96;59.44
68141;BME280;54941;52.220;104.306;2023-04-26T05:06:23;95785.06;;;5.03;61.71
68141;BME280;54941;52.220;104.306;2023-04-26T05:08:49;95776.25;;;4.63;60.98
68141;BME280;54941;52.220;104.306;2023-04-26T05:11:16;95782.16;;;4.63;60.61
68141;BME280;54941;52.220;104.306;2023-04-26T05:13:42;95784.47;;;4.58;61.43
68141;BME280;54941;52.220;104.306;2023-04-26T05:16:08;95778.38;;;4.80;61.84
68141;BME280;54941;52.220;104.306;2023-04-26T05:18:35;95790.00;;;4.83;62.57
68141;BME280;54941;52.220;104.306;2023-04-26T05:21:01;95793.56;;;4.25;64.27
68141;BME280;54941;52.220;104.306;2023-04-26T05:23:29;95783.19;;;4.48;62.36
68141;BME280;54941;52.220;104.306;2023-04-26T05:25:55;95780.81;;;3.08;66.72
68141;BME280;54941;52.220;104.306;2023-04-26T05:28:21;95781.72;;;4.38;64.91
68141;BME280;54941;52.220;104.306;2023-04-26T05:30:48;95780.78;;;3.60;67.02
68141;BME280;54941;52.220;104.306;2023-04-26T05:33:14;95782.09;;;4.35;65.60
68141;BME280;54941;52.220;104.306;2023-04-26T05:35:40;95772.75;;;3.92;67.04
68141;BME280;54941;52.220;104.306;2023-04-26T05:38:07;95770.03;;;4.65;65.99
68141;BME280;54941;52.220;104.306;2023-04-26T05:40:34;95771.22;;;4.69;65.45
68141;BME280;54941;52.220;104.306;2023-04-26T05:43:01;95762.97;;;5.51;62.47
68141;BME280;54941;52.220;104.306;2023-04-26T05:45:27;95774.06;;;5.02;63.22
68141;BME280;54941;52.220;104.306;2023-04-26T05:47:53;95766.97;;;4.34;66.39
68141;BME280;54941;52.220;104.306;2023-04-26T05:50:20;95762.63;;;4.98;64.21
68141;BME280;54941;52.220;104.306;2023-04-26T05:52:46;95755.59;;;4.36;64.92
68141;BME280;54941;52.220;104.306;2023-04-26T05:55:12;95758.38;;;5.39;63.57
68141;BME280;54941;52.220;104.306;2023-04-26T05:57:40;95758.84;;;5.15;62.42
68141;BME280;54941;52.220;104.306;2023-04-26T06:00:07;95758.84;;;6.31;61.10
68141;BME280;54941;52.220;104.306;2023-04-26T06:02:33;95752.94;;;6.44;59.94
68141;BME280;54941;52.220;104.306;2023-04-26T06:05:00;95761.59;;;4.93;63.94
68141;BME280;54941;52.220;104.306;2023-04-26T06:07:26;95763.59;;;5.25;61.72
68141;BME280;54941;52.220;104.306;2023-04-26T06:09:52;95766.06;;;5.39;61.46
68141;BME280;54941;52.220;104.306;2023-04-26T06:12:18;95769.97;;;4.80;65.25
68141;BME280;54941;52.220;104.306;2023-04-26T06:14:46;95767.66;;;5.13;63.80
68141;BME280;54941;52.220;104.306;2023-04-26T06:17:13;95779.44;;;5.14;63.78
68141;BME280;54941;52.220;104.306;2023-04-26T06:19:39;95768.94;;;5.30;63.42
68141;BME280;54941;52.220;104.306;2023-04-26T06:22:05;95776.78;;;5.56;61.24
68141;BME280;54941;52.220;104.306;2023-04-26T06:24:31;95775.34;;;5.81;60.47
68141;BME280;54941;52.220;104.306;2023-04-26T06:26:58;95763.25;;;5.28;61.21
68141;BME280;54941;52.220;104.306;2023-04-26T06:29:24;95771.94;;;5.06;60.74
68141;BME280;54941;52.220;104.306;2023-04-26T06:31:52;95770.19;;;5.06;61.56
68141;BME280;54941;52.220;104.306;2023-04-26T06:34:18;95776.94;;;5.20;60.93
68141;BME280;54941;52.220;104.306;2023-04-26T06:36:45;95770.06;;;4.93;61.29
68141;BME280;54941;52.220;104.306;2023-04-26T06:39:11;95782.09;;;4.35;59.41
68141;BME280;54941;52.220;104.306;2023-04-26T06:41:38;95766.78;;;5.27;59.67
68141;BME280;54941;52.220;104.306;2023-04-26T06:44:04;95769.91;;;5.57;59.35
68141;BME280;54941;52.220;104.306;2023-04-26T06:46:31;95757.81;;;5.37;59.42
68141;BME280;54941;52.220;104.306;2023-04-26T06:49:00;95762.72;;;5.39;60.17
68141;BME280;54941;52.220;104.306;2023-04-26T06:51:27;95768.28;;;5.49;60.31
68141;BME280;54941;52.220;104.306;2023-04-26T06:53:53;95765.53;;;5.16;59.85
68141;BME280;54941;52.220;104.306;2023-04-26T06:56:19;95774.06;;;4.81;60.52
68141;BME280;54941;52.220;104.306;2023-04-26T06:58:58;95770.84;;;5.49;60.33
68141;BME280;54941;52.220;104.306;2023-04-26T07:01:24;95774.88;;;4.60;61.27
68141;BME280;54941;52.220;104.306;2023-04-26T07:03:50;95783.16;;;4.26;61.27
68141;BME280;54941;52.220;104.306;2023-04-26T07:06:18;95777.03;;;4.84;60.67
68141;BME280;54941;52.220;104.306;2023-04-26T07:08:44;95771.22;;;4.48;60.26
68141;BME280;54941;52.220;104.306;2023-04-26T07:11:11;95775.31;;;3.92;63.38
68141;BME280;54941;52.220;104.306;2023-04-26T07:13:38;95775.00;;;4.52;61.31
68141;BME280;54941;52.220;104.306;2023-04-26T07:16:04;95778.69;;;4.28;61.99
68141;BME280;54941;52.220;104.306;2023-04-26T07:18:30;95760.47;;;4.74;60.17
68141;BME280;54941;52.220;104.306;2023-04-26T07:20:57;95785.88;;;4.39;61.77
68141;BME280;54941;52.220;104.306;2023-04-26T07:23:24;95784.00;;;4.12;62.25
68141;BME280;54941;52.220;104.306;2023-04-26T07:25:51;95776.34;;;5.18;72.75
68141;BME280;54941;52.220;104.306;2023-04-26T07:28:17;95777.84;;;5.68;61.08
68141;BME280;54941;52.220;104.306;2023-04-26T07:30:43;95778.31;;;6.26;58.29
68141;BME280;54941;52.220;104.306;2023-04-26T07:33:10;95761.38;;;5.43;58.67
68141;BME280;54941;52.220;104.306;2023-04-26T07:35:36;95772.47;;;5.29;59.73
68141;BME280;54941;52.220;104.306;2023-04-26T07:38:02;95784.81;;;5.47;58.05
68141;BME280;54941;52.220;104.306;2023-04-26T07:40:30;95783.94;;;5.39;59.21
68141;BME280;54941;52.220;104.306;2023-04-26T07:42:56;95788.13;;;4.70;61.97
68141;BME280;54941;52.220;104.306;2023-04-26T07:45:23;95803.97;;;4.45;61.52
68141;BME280;54941;52.220;104.306;2023-04-26T07:47:49;95806.25;;;5.24;59.15
68141;BME280;54941;52.220;104.306;2023-04-26T07:50:15;95804.03;;;4.51;59.69
68141;BME280;54941;52.220;104.306;2023-04-26T07:52:42;95796.13;;;4.88;60.56
68141;BME280;54941;52.220;104.306;2023-04-26T07:55:09;95795.28;;;6.40;56.89
68141;BME280;54941;52.220;104.306;2023-04-26T07:57:36;95796.72;;;5.67;57.33
68141;BME280;54941;52.220;104.306;2023-04-26T08:00:04;95796.81;;;4.76;60.02
68141;BME280;54941;52.220;104.306;2023-04-26T08:02:30;95793.47;;;5.52;59.76
68141;BME280;54941;52.220;104.306;2023-04-26T08:04:57;95792.94;;;4.80;61.86
68141;BME280;54941;52.220;104.306;2023-04-26T08:07:23;95798.09;;;5.35;60.21
68141;BME280;54941;52.220;104.306;2023-04-26T08:09:49;95799.34;;;4.97;58.44
68141;BME280;54941;52.220;104.306;2023-04-26T08:12:15;95799.97;;;5.55;59.10
68141;BME280;54941;52.220;104.306;2023-04-26T08:14:43;95798.75;;;4.17;64.34
68141;BME280;54941;52.220;104.306;2023-04-26T08:17:10;95793.50;;;5.03;61.05
68141;BME280;54941;52.220;104.306;2023-04-26T08:19:36;95800.38;;;5.24;60.69
68141;BME280;54941;52.220;104.306;2023-04-26T08:22:02;95798.69;;;4.46;61.70
68141;BME280;54941;52.220;104.306;2023-04-26T08:24:29;95796.31;;;5.70;58.92
68141;BME280;54941;52.220;104.306;2023-04-26T08:26:55;95791.78;;;5.66;58.34
68141;BME280;54941;52.220;104.306;2023-04-26T08:29:22;95789.75;;;4.35;60.35
68141;BME280;54941;52.220;104.306;2023-04-26T08:31:50;95787.69;;;4.10;63.32
68141;BME280;54941;52.220;104.306;2023-04-26T08:34:16;95789.84;;;3.77;64.03
68141;BME280;54941;52.220;104.306;2023-04-26T08:36:43;95789.91;;;3.98;65.39
68141;BME280;54941;52.220;104.306;2023-04-26T08:39:09;95782.91;;;4.21;64.69
68141;BME280;54941;52.220;104.306;2023-04-26T08:41:39;95790.09;;;4.32;64.30
68141;BME280;54941;52.220;104.306;2023-04-26T08:44:07;95795.63;;;3.85;65.94
68141;BME280;54941;52.220;104.306;2023-04-26T08:46:42;95795.53;;;4.65;63.97
68141;BME280;54941;52.220;104.306;2023-04-26T08:49:12;95792.94;;;4.23;63.76
68141;BME280;54941;52.220;104.306;2023-04-26T08:51:44;95802.94;;;4.39;66.45
68141;BME280;54941;52.220;104.306;2023-04-26T08:54:11;95802.16;;;4.81;63.23
68141;BME280;54941;52.220;104.306;2023-04-26T08:56:38;95820.34;;;4.35;63.98
68141;BME280;54941;52.220;104.306;2023-04-26T08:59:08;95816.28;;;4.05;65.12
68141;BME280;54941;52.220;104.306;2023-04-26T09:01:36;95815.03;;;3.42;66.69
68141;BME280;54941;52.220;104.306;2023-04-26T09:04:04;95820.16;;;3.72;65.70
68141;BME280;54941;52.220;104.306;2023-04-26T09:06:33;95818.03;;;3.90;63.44
68141;BME280;54941;52.220;104.306;2023-04-26T09:09:01;95820.88;;;3.95;63.86
68141;BME280;54941;52.220;104.306;2023-04-26T09:11:28;95819.44;;;3.92;64.04
68141;BME280;54941;52.220;104.306;2023-04-26T09:13:54;95829.03;;;3.61;65.47
68141;BME280;54941;52.220;104.306;2023-04-26T09:16:34;95816.38;;;3.53;65.53
68141;BME280;54941;52.220;104.306;2023-04-26T09:19:00;95811.34;;;4.04;63.76
68141;BME280;54941;52.220;104.306;2023-04-26T09:21:26;95819.44;;;3.63;64.98
68141;BME280;54941;52.220;104.306;2023-04-26T09:24:00;95829.91;;;3.68;68.21
68141;BME280;54941;52.220;104.306;2023-04-26T09:26:27;95835.81;;;3.98;62.63
68141;BME280;54941;52.220;104.306;2023-04-26T09:29:11;95831.69;;;4.69;61.40
68141;BME280;54941;52.220;104.306;2023-04-26T09:31:39;95832.63;;;3.67;63.59
68141;BME280;54941;52.220;104.306;2023-04-26T09:34:06;95830.63;;;3.77;64.61
68141;BME280;54941;52.220;104.306;2023-04-26T09:36:32;95826.66;;;3.60;66.24
68141;BME280;54941;52.220;104.306;2023-04-26T09:39:12;95833.28;;;2.94;66.70
68141;BME280;54941;52.220;104.306;2023-04-26T09:41:42;95846.09;;;3.75;64.31
68141;BME280;54941;52.220;104.306;2023-04-26T09:44:20;95845.06;;;4.71;59.93
68141;BME280;54941;52.220;104.306;2023-04-26T09:46:57;95854.88;;;5.10;60.37
68141;BME280;54941;52.220;104.306;2023-04-26T09:49:25;95850.69;;;4.66;60.73
68141;BME280;54941;52.220;104.306;2023-04-26T09:51:59;95846.88;;;4.77;60.81
68141;BME280;54941;52.220;104.306;2023-04-26T09:54:42;95850.03;;;4.58;61.57
68141;BME280;54941;52.220;104.306;2023-04-26T09:57:09;95864.28;;;4.52;61.50
68141;BME280;54941;52.220;104.306;2023-04-26T09:59:39;95854.31;;;4.07;63.02
68141;BME280;54941;52.220;104.306;2023-04-26T10:02:12;95858.28;;;4.24;62.98
68141;BME280;54941;52.220;104.306;2023-04-26T10:04:38;95866.13;;;4.08;64.62
68141;BME280;54941;52.220;104.306;2023-04-26T10:07:05;95860.31;;;4.28;61.79
68141;BME280;54941;52.220;104.306;2023-04-26T10:09:32;95854.28;;;4.51;62.14
68141;BME280;54941;52.220;104.306;2023-04-26T10:12:00;95860.31;;;4.28;61.52
68141;BME280;54941;52.220;104.306;2023-04-26T10:14:26;95862.72;;;4.36;62.28
68141;BME280;54941;52.220;104.306;2023-04-26T10:16:53;95867.25;;;3.76;64.28
68141;BME280;54941;52.220;104.306;2023-04-26T10:19:23;95874.41;;;3.06;66.48
68141;BME280;54941;52.220;104.306;2023-04-26T10:21:52;95875.50;;;3.63;64.95
68141;BME280;54941;52.220;104.306;2023-04-26T10:24:25;95870.84;;;3.96;64.68
68141;BME280;54941;52.220;104.306;2023-04-26T10:26:52;95872.00;;;3.64;64.98
68141;BME280;54941;52.220;104.306;2023-04-26T10:29:21;95873.59;;;3.95;63.74
68141;BME280;54941;52.220;104.306;2023-04-26T10:32:06;95867.84;;;3.63;66.46
68141;BME280;54941;52.220;104.306;2023-04-26T10:34:34;95873.75;;;3.64;65.19
68141;BME280;54941;52.220;104.306;2023-04-26T10:37:11;95866.91;;;4.08;65.93
68141;BME280;54941;52.220;104.306;2023-04-26T10:39:38;95878.03;;;5.08;61.33
68141;BME280;54941;52.220;104.306;2023-04-26T10:42:22;95880.19;;;4.69;61.45
68141;BME280;54941;52.220;104.306;2023-04-26T10:44:51;95887.44;;;5.50;59.10
68141;BME280;54941;52.220;104.306;2023-04-26T10:47:26;95879.97;;;5.76;58.72
68141;BME280;54941;52.220;104.306;2023-04-26T10:50:00;95873.88;;;5.50;59.28
68141;BME280;54941;52.220;104.306;2023-04-26T10:52:27;95881.25;;;5.38;59.02
68141;BME280;54941;52.220;104.306;2023-04-26T10:54:54;95886.84;;;5.06;59.53
68141;BME280;54941;52.220;104.306;2023-04-26T10:57:22;95881.91;;;5.04;61.50
68141;BME280;54941;52.220;104.306;2023-04-26T11:00:19;95872.59;;;4.10;60.75
68141;BME280;54941;52.220;104.306;2023-04-26T11:02:46;95873.03;;;4.43;62.42
68141;BME280;54941;52.220;104.306;2023-04-26T11:05:47;95872.44;;;4.26;63.49
68141;BME280;54941;52.220;104.306;2023-04-26T11:08:16;95877.09;;;4.37;63.07
68141;BME280;54941;52.220;104.306;2023-04-26T11:10:45;95884.03;;;4.29;63.28
68141;BME280;54941;52.220;104.306;2023-04-26T11:13:15;95881.94;;;4.18;62.92
68141;BME280;54941;52.220;104.306;2023-04-26T11:15:43;95884.16;;;4.21;62.17
68141;BME280;54941;52.220;104.306;2023-04-26T11:18:10;95888.25;;;4.22;62.15
68141;BME280;54941;52.220;104.306;2023-04-26T11:20:36;95884.31;;;4.05;62.60
68141;BME280;54941;52.220;104.306;2023-04-26T11:23:02;95897.50;;;4.23;61.63
68141;BME280;54941;52.220;104.306;2023-04-26T11:25:32;95895.34;;;4.56;62.85
68141;BME280;54941;52.220;104.306;2023-04-26T11:27:59;95898.38;;;4.01;62.50
68141;BME280;54941;52.220;104.306;2023-04-26T11:30:27;95899.00;;;4.32;62.65
68141;BME280;54941;52.220;104.306;2023-04-26T11:32:55;95888.53;;;4.27;62.82
68141;BME280;54941;52.220;104.306;2023-04-26T11:35:22;95890.13;;;4.28;63.73
68141;BME280;54941;52.220;104.306;2023-04-26T11:37:50;95900.34;;;4.13;62.17
68141;BME280;54941;52.220;104.306;2023-04-26T11:40:17;95906.53;;;3.07;65.36
68141;BME280;54941;52.220;104.306;2023-04-26T11:42:43;95900.81;;;3.65;63.92
68141;BME280;54941;52.220;104.306;2023-04-26T11:45:10;95895.13;;;3.40;64.49
68141;BME280;54941;52.220;104.306;2023-04-26T11:47:37;95909.78;;;3.75;64.16
68141;BME280;54941;52.220;104.306;2023-04-26T11:50:07;95913.69;;;4.15;63.63
68141;BME280;54941;52.220;104.306;2023-04-26T11:52:34;95908.25;;;3.66;64.65
68141;BME280;54941;52.220;104.306;2023-04-26T11:55:01;95909.44;;;3.41;65.17
68141;BME280;54941;52.220;104.306;2023-04-26T11:57:30;95918.41;;;3.89;64.54
68141;BME280;54941;52.220;104.306;2023-04-26T12:00:07;95915.00;;;3.44;65.48
68141;BME280;54941;52.220;104.306;2023-04-26T12:02:34;95908.25;;;3.66;66.18
68141;BME280;54941;52.220;104.306;2023-04-26T12:05:01;95909.28;;;3.95;65.19
68141;BME280;54941;52.220;104.306;2023-04-26T12:07:34;95912.19;;;3.91;64.79
68141;BME280;54941;52.220;104.306;2023-04-26T12:10:13;95913.41;;;3.96;63.89
68141;BME280;54941;52.220;104.306;2023-04-26T12:12:43;95915.06;;;3.88;64.78
68141;BME280;54941;52.220;104.306;2023-04-26T12:15:10;95919.84;;;4.06;65.26
68141;BME280;54941;52.220;104.306;2023-04-26T12:17:37;95923.41;;;3.82;64.04
68141;BME280;54941;52.220;104.306;2023-04-26T12:20:09;95929.91;;;3.48;66.73
68141;BME280;54941;52.220;104.306;2023-04-26T12:22:37;95929.69;;;3.95;64.86
68141;BME280;54941;52.220;104.306;2023-04-26T12:25:04;95934.16;;;3.92;64.71
68141;BME280;54941;52.220;104.306;2023-04-26T12:27:30;95928.53;;;4.26;64.24
68141;BME280;54941;52.220;104.306;2023-04-26T12:29:57;95919.91;;;3.46;66.86
68141;BME280;54941;52.220;104.306;2023-04-26T12:32:23;95925.03;;;4.42;63.97
68141;BME280;54941;52.220;104.306;2023-04-26T12:34:50;95931.50;;;3.86;66.15
68141;BME280;54941;52.220;104.306;2023-04-26T12:37:16;95927.78;;;3.74;66.03
68141;BME280;54941;52.220;104.306;2023-04-26T12:39:44;95922.84;;;4.10;65.52
68141;BME280;54941;52.220;104.306;2023-04-26T12:42:10;95937.06;;;4.19;65.06
68141;BME280;54941;52.220;104.306;2023-04-26T12:44:36;95943.59;;;3.55;66.55
68141;BME280;54941;52.220;104.306;2023-04-26T12:47:03;95932.16;;;3.88;64.73
68141;BME280;54941;52.220;104.306;2023-04-26T12:49:30;95926.34;;;3.94;65.23
68141;BME280;54941;52.220;104.306;2023-04-26T12:51:56;95922.06;;;3.57;66.77